Staunton, Virginia
Current Conditions -  °F | °C
As of 12:55 AM on Friday 28 Nov 2014 (Local Time) from KW13 Reporting Station
Clear Clear  
Wind Chill: 29°   Ceiling: Unl
Heat Index: 29°   Visibility: 10mi
Dew Point: 17°   Wind: 3mph
Humidity: 63%   Direction: 290°WNW
Pressure: 30.19"   Gusts: NA
Location:  38.15°N, 79.07°W
Report Text: KW13 280555Z AUTO 29003KT 10SM CLR M02/M08 A3019 RMK AO1 T10181081 10004 21018
Loading
Personal Weather Stations






























Interactive Weather Map New forecast layout! Learn more

10-Day Weather Forecast

Advertisements
Track Severe Weather on mobile